sensor_id;sensor_type;location;lat;lon;timestamp;P1;durP1;ratioP1;P2;durP2;ratioP2
68633;SDS011;55625;47.072;22.192;2022-09-11T00:00:54;7.45;;;2.95;;
68633;SDS011;55625;47.072;22.192;2022-09-11T00:03:20;9.18;;;3.88;;
68633;SDS011;55625;47.072;22.192;2022-09-11T00:05:48;14.52;;;3.40;;
68633;SDS011;55625;47.072;22.192;2022-09-11T00:08:16;8.30;;;3.53;;
68633;SDS011;55625;47.072;22.192;2022-09-11T00:10:45;7.30;;;3.30;;
68633;SDS011;55625;47.072;22.192;2022-09-11T00:13:13;9.00;;;3.17;;
68633;SDS011;55625;47.072;22.192;2022-09-11T00:15:45;8.38;;;3.58;;
68633;SDS011;55625;47.072;22.192;2022-09-11T00:18:14;8.57;;;4.13;;
68633;SDS011;55625;47.072;22.192;2022-09-11T00:20:49;8.63;;;3.10;;
68633;SDS011;55625;47.072;22.192;2022-09-11T00:23:18;13.05;;;3.55;;
68633;SDS011;55625;47.072;22.192;2022-09-11T00:25:46;8.75;;;2.63;;
68633;SDS011;55625;47.072;22.192;2022-09-11T00:28:13;11.98;;;3.47;;
68633;SDS011;55625;47.072;22.192;2022-09-11T00:30:46;10.85;;;3.28;;
68633;SDS011;55625;47.072;22.192;2022-09-11T00:33:29;11.10;;;3.57;;
68633;SDS011;55625;47.072;22.192;2022-09-11T00:35:57;10.48;;;3.40;;
68633;SDS011;55625;47.072;22.192;2022-09-11T00:38:28;6.30;;;2.35;;
68633;SDS011;55625;47.072;22.192;2022-09-11T00:40:58;8.38;;;3.17;;
68633;SDS011;55625;47.072;22.192;2022-09-11T00:43:26;8.77;;;3.50;;
68633;SDS011;55625;47.072;22.192;2022-09-11T00:45:59;10.53;;;2.70;;
68633;SDS011;55625;47.072;22.192;2022-09-11T00:48:33;9.27;;;3.63;;
68633;SDS011;55625;47.072;22.192;2022-09-11T00:51:01;9.13;;;3.38;;
68633;SDS011;55625;47.072;22.192;2022-09-11T00:53:29;8.75;;;3.00;;
68633;SDS011;55625;47.072;22.192;2022-09-11T00:56:00;6.97;;;2.85;;
68633;SDS011;55625;47.072;22.192;2022-09-11T00:58:33;8.63;;;3.67;;
68633;SDS011;55625;47.072;22.192;2022-09-11T01:01:03;8.50;;;2.92;;
68633;SDS011;55625;47.072;22.192;2022-09-11T01:03:29;8.13;;;3.08;;
68633;SDS011;55625;47.072;22.192;2022-09-11T01:05:56;9.90;;;2.90;;
68633;SDS011;55625;47.072;22.192;2022-09-11T01:08:23;7.93;;;2.70;;
68633;SDS011;55625;47.072;22.192;2022-09-11T01:14:17;8.65;;;2.95;;
68633;SDS011;55625;47.072;22.192;2022-09-11T01:20:24;6.70;;;2.40;;
68633;SDS011;55625;47.072;22.192;2022-09-11T01:28:53;12.48;;;3.88;;
68633;SDS011;55625;47.072;22.192;2022-09-11T01:32:22;8.43;;;3.38;;
68633;SDS011;55625;47.072;22.192;2022-09-11T01:34:50;11.20;;;3.00;;
68633;SDS011;55625;47.072;22.192;2022-09-11T01:37:48;7.85;;;3.47;;
68633;SDS011;55625;47.072;22.192;2022-09-11T01:40:29;9.67;;;3.43;;
68633;SDS011;55625;47.072;22.192;2022-09-11T01:43:08;10.32;;;3.05;;
68633;SDS011;55625;47.072;22.192;2022-09-11T01:45:46;7.80;;;3.30;;
68633;SDS011;55625;47.072;22.192;2022-09-11T01:48:19;9.32;;;3.35;;
68633;SDS011;55625;47.072;22.192;2022-09-11T01:50:54;9.68;;;2.97;;
68633;SDS011;55625;47.072;22.192;2022-09-11T01:53:24;8.83;;;2.83;;
68633;SDS011;55625;47.072;22.192;2022-09-11T01:56:04;8.00;;;3.08;;
68633;SDS011;55625;47.072;22.192;2022-09-11T01:58:37;7.30;;;2.92;;
68633;SDS011;55625;47.072;22.192;2022-09-11T02:03:39;6.85;;;2.22;;
68633;SDS011;55625;47.072;22.192;2022-09-11T02:06:29;6.20;;;2.57;;
68633;SDS011;55625;47.072;22.192;2022-09-11T02:09:13;7.05;;;2.65;;
68633;SDS011;55625;47.072;22.192;2022-09-11T02:11:42;6.72;;;2.63;;
68633;SDS011;55625;47.072;22.192;2022-09-11T02:14:15;7.90;;;3.58;;
68633;SDS011;55625;47.072;22.192;2022-09-11T02:19:53;6.63;;;2.50;;
68633;SDS011;55625;47.072;22.192;2022-09-11T02:22:22;8.10;;;3.05;;
68633;SDS011;55625;47.072;22.192;2022-09-11T02:24:49;8.23;;;2.13;;
68633;SDS011;55625;47.072;22.192;2022-09-11T02:27:25;6.97;;;2.22;;
68633;SDS011;55625;47.072;22.192;2022-09-11T02:29:52;6.05;;;2.22;;
68633;SDS011;55625;47.072;22.192;2022-09-11T02:32:20;5.97;;;1.83;;
68633;SDS011;55625;47.072;22.192;2022-09-11T02:34:46;8.77;;;2.13;;
68633;SDS011;55625;47.072;22.192;2022-09-11T02:42:57;4.13;;;1.23;;
68633;SDS011;55625;47.072;22.192;2022-09-11T02:48:42;5.07;;;2.08;;
68633;SDS011;55625;47.072;22.192;2022-09-11T02:52:01;5.05;;;1.85;;
68633;SDS011;55625;47.072;22.192;2022-09-11T02:57:59;4.25;;;1.95;;
68633;SDS011;55625;47.072;22.192;2022-09-11T03:00:37;3.70;;;1.30;;
68633;SDS011;55625;47.072;22.192;2022-09-11T03:03:04;3.47;;;0.95;;
68633;SDS011;55625;47.072;22.192;2022-09-11T03:05:30;4.03;;;1.27;;
68633;SDS011;55625;47.072;22.192;2022-09-11T03:07:56;6.47;;;0.57;;
68633;SDS011;55625;47.072;22.192;2022-09-11T03:10:23;5.03;;;1.47;;
68633;SDS011;55625;47.072;22.192;2022-09-11T03:12:51;3.60;;;1.17;;
68633;SDS011;55625;47.072;22.192;2022-09-11T03:15:18;6.90;;;1.77;;
68633;SDS011;55625;47.072;22.192;2022-09-11T03:17:44;3.75;;;1.63;;
68633;SDS011;55625;47.072;22.192;2022-09-11T03:20:10;5.03;;;1.87;;
68633;SDS011;55625;47.072;22.192;2022-09-11T03:22:36;5.05;;;0.70;;
68633;SDS011;55625;47.072;22.192;2022-09-11T03:25:03;5.53;;;1.23;;
68633;SDS011;55625;47.072;22.192;2022-09-11T03:27:30;4.45;;;1.10;;
68633;SDS011;55625;47.072;22.192;2022-09-11T03:29:56;5.07;;;1.80;;
68633;SDS011;55625;47.072;22.192;2022-09-11T03:32:24;3.03;;;1.27;;
68633;SDS011;55625;47.072;22.192;2022-09-11T03:34:50;5.22;;;1.45;;
68633;SDS011;55625;47.072;22.192;2022-09-11T03:37:16;3.45;;;1.77;;
68633;SDS011;55625;47.072;22.192;2022-09-11T03:39:42;5.10;;;1.15;;
68633;SDS011;55625;47.072;22.192;2022-09-11T03:42:07;3.80;;;1.47;;
68633;SDS011;55625;47.072;22.192;2022-09-11T03:44:36;3.53;;;1.20;;
68633;SDS011;55625;47.072;22.192;2022-09-11T03:47:02;3.38;;;0.70;;
68633;SDS011;55625;47.072;22.192;2022-09-11T03:49:30;2.67;;;1.23;;
68633;SDS011;55625;47.072;22.192;2022-09-11T03:51:55;5.80;;;1.10;;
68633;SDS011;55625;47.072;22.192;2022-09-11T03:54:21;3.70;;;0.88;;
68633;SDS011;55625;47.072;22.192;2022-09-11T03:56:47;2.78;;;0.90;;
68633;SDS011;55625;47.072;22.192;2022-09-11T03:59:13;3.70;;;0.70;;
68633;SDS011;55625;47.072;22.192;2022-09-11T04:01:39;2.83;;;0.60;;
68633;SDS011;55625;47.072;22.192;2022-09-11T04:04:04;4.82;;;1.38;;
68633;SDS011;55625;47.072;22.192;2022-09-11T04:06:30;3.53;;;1.07;;
68633;SDS011;55625;47.072;22.192;2022-09-11T04:08:57;3.78;;;1.20;;
68633;SDS011;55625;47.072;22.192;2022-09-11T04:11:23;3.22;;;1.20;;
68633;SDS011;55625;47.072;22.192;2022-09-11T04:13:48;2.67;;;0.87;;
68633;SDS011;55625;47.072;22.192;2022-09-11T04:16:18;3.25;;;0.68;;
68633;SDS011;55625;47.072;22.192;2022-09-11T04:18:45;4.70;;;1.58;;
68633;SDS011;55625;47.072;22.192;2022-09-11T04:21:12;2.65;;;0.80;;
68633;SDS011;55625;47.072;22.192;2022-09-11T04:23:41;4.25;;;0.75;;
68633;SDS011;55625;47.072;22.192;2022-09-11T04:26:16;4.60;;;1.33;;
68633;SDS011;55625;47.072;22.192;2022-09-11T04:28:44;2.90;;;0.90;;
68633;SDS011;55625;47.072;22.192;2022-09-11T04:31:11;5.57;;;0.93;;
68633;SDS011;55625;47.072;22.192;2022-09-11T04:33:38;2.45;;;0.63;;
68633;SDS011;55625;47.072;22.192;2022-09-11T04:36:09;4.55;;;1.00;;
68633;SDS011;55625;47.072;22.192;2022-09-11T04:38:39;4.17;;;0.80;;
68633;SDS011;55625;47.072;22.192;2022-09-11T04:41:06;2.33;;;0.52;;
68633;SDS011;55625;47.072;22.192;2022-09-11T04:43:34;4.20;;;0.82;;
68633;SDS011;55625;47.072;22.192;2022-09-11T04:46:02;4.70;;;1.13;;
68633;SDS011;55625;47.072;22.192;2022-09-11T04:48:35;2.83;;;0.93;;
68633;SDS011;55625;47.072;22.192;2022-09-11T04:51:06;2.47;;;0.80;;
68633;SDS011;55625;47.072;22.192;2022-09-11T04:53:33;3.22;;;0.57;;
68633;SDS011;55625;47.072;22.192;2022-09-11T04:56:03;2.90;;;0.75;;
68633;SDS011;55625;47.072;22.192;2022-09-11T04:58:32;2.95;;;1.00;;
68633;SDS011;55625;47.072;22.192;2022-09-11T05:01:00;3.70;;;0.73;;
68633;SDS011;55625;47.072;22.192;2022-09-11T05:03:31;2.27;;;0.27;;
68633;SDS011;55625;47.072;22.192;2022-09-11T05:05:57;5.13;;;0.68;;
68633;SDS011;55625;47.072;22.192;2022-09-11T05:08:24;3.50;;;0.80;;
68633;SDS011;55625;47.072;22.192;2022-09-11T05:10:51;3.35;;;1.25;;
68633;SDS011;55625;47.072;22.192;2022-09-11T05:13:17;6.63;;;0.77;;
68633;SDS011;55625;47.072;22.192;2022-09-11T05:15:43;2.40;;;0.63;;
68633;SDS011;55625;47.072;22.192;2022-09-11T05:18:09;3.72;;;1.08;;
68633;SDS011;55625;47.072;22.192;2022-09-11T05:20:35;2.50;;;0.63;;
68633;SDS011;55625;47.072;22.192;2022-09-11T05:23:01;2.90;;;0.20;;
68633;SDS011;55625;47.072;22.192;2022-09-11T05:25:30;2.83;;;0.70;;
68633;SDS011;55625;47.072;22.192;2022-09-11T05:27:56;3.05;;;1.13;;
68633;SDS011;55625;47.072;22.192;2022-09-11T05:30:22;4.77;;;0.60;;
68633;SDS011;55625;47.072;22.192;2022-09-11T05:32:52;2.70;;;0.20;;
68633;SDS011;55625;47.072;22.192;2022-09-11T05:35:19;3.72;;;0.20;;
68633;SDS011;55625;47.072;22.192;2022-09-11T05:37:48;3.70;;;0.77;;
68633;SDS011;55625;47.072;22.192;2022-09-11T05:40:14;2.72;;;0.57;;
68633;SDS011;55625;47.072;22.192;2022-09-11T05:42:40;4.13;;;0.90;;
68633;SDS011;55625;47.072;22.192;2022-09-11T05:45:06;3.42;;;0.40;;
68633;SDS011;55625;47.072;22.192;2022-09-11T05:47:33;2.85;;;0.73;;
68633;SDS011;55625;47.072;22.192;2022-09-11T05:49:58;3.53;;;0.30;;
68633;SDS011;55625;47.072;22.192;2022-09-11T05:52:25;1.90;;;0.20;;
68633;SDS011;55625;47.072;22.192;2022-09-11T05:54:52;2.97;;;1.10;;
68633;SDS011;55625;47.072;22.192;2022-09-11T05:57:18;5.05;;;1.00;;
68633;SDS011;55625;47.072;22.192;2022-09-11T05:59:44;3.93;;;0.40;;
68633;SDS011;55625;47.072;22.192;2022-09-11T06:02:10;2.10;;;0.32;;
68633;SDS011;55625;47.072;22.192;2022-09-11T06:04:36;2.63;;;0.35;;
68633;SDS011;55625;47.072;22.192;2022-09-11T06:07:01;3.23;;;0.30;;
68633;SDS011;55625;47.072;22.192;2022-09-11T06:09:27;2.20;;;0.57;;
68633;SDS011;55625;47.072;22.192;2022-09-11T06:11:53;3.07;;;0.60;;
68633;SDS011;55625;47.072;22.192;2022-09-11T06:14:19;2.93;;;0.53;;
68633;SDS011;55625;47.072;22.192;2022-09-11T06:16:45;3.85;;;0.47;;
68633;SDS011;55625;47.072;22.192;2022-09-11T06:19:12;3.13;;;0.30;;
68633;SDS011;55625;47.072;22.192;2022-09-11T06:21:38;2.25;;;0.30;;
68633;SDS011;55625;47.072;22.192;2022-09-11T06:24:04;3.03;;;0.33;;
68633;SDS011;55625;47.072;22.192;2022-09-11T06:26:30;4.72;;;0.50;;
68633;SDS011;55625;47.072;22.192;2022-09-11T06:28:56;5.85;;;0.80;;
68633;SDS011;55625;47.072;22.192;2022-09-11T06:31:23;4.13;;;0.43;;
68633;SDS011;55625;47.072;22.192;2022-09-11T06:33:51;2.80;;;0.73;;
68633;SDS011;55625;47.072;22.192;2022-09-11T06:36:20;2.58;;;0.55;;
68633;SDS011;55625;47.072;22.192;2022-09-11T06:38:54;1.85;;;0.38;;
68633;SDS011;55625;47.072;22.192;2022-09-11T06:41:21;2.58;;;0.55;;
68633;SDS011;55625;47.072;22.192;2022-09-11T06:43:48;2.97;;;0.30;;
68633;SDS011;55625;47.072;22.192;2022-09-11T06:46:15;2.70;;;1.07;;
68633;SDS011;55625;47.072;22.192;2022-09-11T06:48:44;3.63;;;1.27;;
68633;SDS011;55625;47.072;22.192;2022-09-11T06:51:13;2.25;;;0.40;;
68633;SDS011;55625;47.072;22.192;2022-09-11T06:53:41;3.10;;;0.40;;
68633;SDS011;55625;47.072;22.192;2022-09-11T06:56:09;2.20;;;0.50;;
68633;SDS011;55625;47.072;22.192;2022-09-11T06:58:38;4.05;;;0.60;;
68633;SDS011;55625;47.072;22.192;2022-09-11T07:01:05;4.40;;;0.70;;
68633;SDS011;55625;47.072;22.192;2022-09-11T07:03:49;3.35;;;0.30;;
68633;SDS011;55625;47.072;22.192;2022-09-11T07:06:19;2.28;;;0.47;;
68633;SDS011;55625;47.072;22.192;2022-09-11T07:08:50;2.73;;;0.77;;
68633;SDS011;55625;47.072;22.192;2022-09-11T07:11:18;1.70;;;0.30;;
68633;SDS011;55625;47.072;22.192;2022-09-11T07:13:45;2.00;;;0.45;;
68633;SDS011;55625;47.072;22.192;2022-09-11T07:16:11;2.17;;;0.63;;
68633;SDS011;55625;47.072;22.192;2022-09-11T07:18:43;2.92;;;0.60;;
68633;SDS011;55625;47.072;22.192;2022-09-11T07:21:18;3.47;;;0.60;;
68633;SDS011;55625;47.072;22.192;2022-09-11T07:23:48;3.30;;;1.05;;
68633;SDS011;55625;47.072;22.192;2022-09-11T07:26:18;2.67;;;1.25;;
68633;SDS011;55625;47.072;22.192;2022-09-11T07:28:45;2.47;;;0.65;;
68633;SDS011;55625;47.072;22.192;2022-09-11T07:31:18;7.68;;;0.75;;
68633;SDS011;55625;47.072;22.192;2022-09-11T07:33:53;2.03;;;0.70;;
68633;SDS011;55625;47.072;22.192;2022-09-11T07:36:21;4.53;;;1.25;;
68633;SDS011;55625;47.072;22.192;2022-09-11T07:38:50;3.60;;;0.73;;
68633;SDS011;55625;47.072;22.192;2022-09-11T07:41:17;3.92;;;0.82;;
68633;SDS011;55625;47.072;22.192;2022-09-11T07:43:45;2.67;;;1.48;;
68633;SDS011;55625;47.072;22.192;2022-09-11T07:46:14;3.43;;;0.43;;
68633;SDS011;55625;47.072;22.192;2022-09-11T07:48:40;2.25;;;0.55;;
68633;SDS011;55625;47.072;22.192;2022-09-11T07:51:07;2.97;;;1.08;;
68633;SDS011;55625;47.072;22.192;2022-09-11T07:56:04;2.08;;;0.80;;
68633;SDS011;55625;47.072;22.192;2022-09-11T07:58:50;4.67;;;1.23;;
68633;SDS011;55625;47.072;22.192;2022-09-11T08:01:19;2.30;;;1.17;;
68633;SDS011;55625;47.072;22.192;2022-09-11T08:03:52;2.78;;;0.80;;
68633;SDS011;55625;47.072;22.192;2022-09-11T08:06:23;4.22;;;0.98;;
68633;SDS011;55625;47.072;22.192;2022-09-11T08:08:55;4.82;;;0.98;;
68633;SDS011;55625;47.072;22.192;2022-09-11T08:11:28;2.87;;;1.33;;
68633;SDS011;55625;47.072;22.192;2022-09-11T08:13:55;2.45;;;1.15;;
68633;SDS011;55625;47.072;22.192;2022-09-11T08:16:23;3.47;;;0.43;;
68633;SDS011;55625;47.072;22.192;2022-09-11T08:18:51;1.80;;;0.60;;
68633;SDS011;55625;47.072;22.192;2022-09-11T08:21:19;4.70;;;0.57;;
68633;SDS011;55625;47.072;22.192;2022-09-11T08:23:46;2.77;;;0.67;;
68633;SDS011;55625;47.072;22.192;2022-09-11T08:26:22;3.47;;;0.68;;
68633;SDS011;55625;47.072;22.192;2022-09-11T08:28:51;3.75;;;1.27;;
68633;SDS011;55625;47.072;22.192;2022-09-11T08:31:20;2.13;;;0.85;;
68633;SDS011;55625;47.072;22.192;2022-09-11T08:33:50;2.40;;;0.68;;
68633;SDS011;55625;47.072;22.192;2022-09-11T08:36:17;3.10;;;1.13;;
68633;SDS011;55625;47.072;22.192;2022-09-11T08:38:44;3.35;;;0.95;;
68633;SDS011;55625;47.072;22.192;2022-09-11T08:41:14;6.65;;;0.80;;
68633;SDS011;55625;47.072;22.192;2022-09-11T08:43:55;2.53;;;0.50;;
68633;SDS011;55625;47.072;22.192;2022-09-11T08:46:34;4.60;;;1.35;;
68633;SDS011;55625;47.072;22.192;2022-09-11T08:52:04;2.42;;;0.47;;
68633;SDS011;55625;47.072;22.192;2022-09-11T08:54:34;2.00;;;0.57;;
68633;SDS011;55625;47.072;22.192;2022-09-11T09:03:08;1.60;;;0.90;;
68633;SDS011;55625;47.072;22.192;2022-09-11T09:14:52;1.60;;;0.68;;
68633;SDS011;55625;47.072;22.192;2022-09-11T09:17:39;2.03;;;0.73;;
68633;SDS011;55625;47.072;22.192;2022-09-11T09:20:20;2.50;;;0.32;;
68633;SDS011;55625;47.072;22.192;2022-09-11T09:22:58;2.88;;;0.40;;
68633;SDS011;55625;47.072;22.192;2022-09-11T09:25:32;2.30;;;0.30;;
68633;SDS011;55625;47.072;22.192;2022-09-11T09:28:09;2.88;;;0.77;;
68633;SDS011;55625;47.072;22.192;2022-09-11T09:30:55;2.73;;;0.67;;
68633;SDS011;55625;47.072;22.192;2022-09-11T09:36:26;1.70;;;0.50;;
68633;SDS011;55625;47.072;22.192;2022-09-11T09:39:14;3.58;;;0.98;;
68633;SDS011;55625;47.072;22.192;2022-09-11T09:47:47;1.75;;;0.85;;
68633;SDS011;55625;47.072;22.192;2022-09-11T09:50:17;1.65;;;0.60;;
68633;SDS011;55625;47.072;22.192;2022-09-11T09:52:49;1.30;;;0.20;;
68633;SDS011;55625;47.072;22.192;2022-09-11T09:55:21;7.68;;;2.25;;
68633;SDS011;55625;47.072;22.192;2022-09-11T09:57:47;2.77;;;0.97;;
68633;SDS011;55625;47.072;22.192;2022-09-11T10:00:17;2.38;;;0.60;;
68633;SDS011;55625;47.072;22.192;2022-09-11T10:05:26;1.65;;;0.40;;
68633;SDS011;55625;47.072;22.192;2022-09-11T10:08:02;1.57;;;0.70;;
68633;SDS011;55625;47.072;22.192;2022-09-11T10:11:09;3.78;;;0.75;;
68633;SDS011;55625;47.072;22.192;2022-09-11T10:13:38;10.32;;;2.75;;
68633;SDS011;55625;47.072;22.192;2022-09-11T10:19:07;1.45;;;0.30;;
68633;SDS011;55625;47.072;22.192;2022-09-11T10:22:40;1.70;;;1.00;;
68633;SDS011;55625;47.072;22.192;2022-09-11T10:27:28;4.97;;;1.45;;
68633;SDS011;55625;47.072;22.192;2022-09-11T10:30:00;2.17;;;0.70;;
68633;SDS011;55625;47.072;22.192;2022-09-11T10:32:28;1.52;;;0.63;;
68633;SDS011;55625;47.072;22.192;2022-09-11T10:34:54;3.60;;;0.97;;
68633;SDS011;55625;47.072;22.192;2022-09-11T10:37:22;2.17;;;0.95;;
68633;SDS011;55625;47.072;22.192;2022-09-11T10:39:59;2.47;;;1.02;;
68633;SDS011;55625;47.072;22.192;2022-09-11T10:42:41;1.85;;;0.43;;
68633;SDS011;55625;47.072;22.192;2022-09-11T10:45:11;3.92;;;0.70;;
68633;SDS011;55625;47.072;22.192;2022-09-11T10:47:41;2.00;;;1.20;;
68633;SDS011;55625;47.072;22.192;2022-09-11T10:52:46;1.50;;;0.32;;
68633;SDS011;55625;47.072;22.192;2022-09-11T10:55:22;1.40;;;0.40;;
68633;SDS011;55625;47.072;22.192;2022-09-11T10:57:52;3.05;;;0.90;;
68633;SDS011;55625;47.072;22.192;2022-09-11T11:00:31;1.63;;;0.40;;
68633;SDS011;55625;47.072;22.192;2022-09-11T11:03:02;3.83;;;0.30;;
68633;SDS011;55625;47.072;22.192;2022-09-11T11:11:07;3.72;;;0.93;;
68633;SDS011;55625;47.072;22.192;2022-09-11T11:16:52;1.60;;;0.70;;
68633;SDS011;55625;47.072;22.192;2022-09-11T11:29:38;1.20;;;0.40;;
68633;SDS011;55625;47.072;22.192;2022-09-11T11:35:01;2.47;;;0.90;;
68633;SDS011;55625;47.072;22.192;2022-09-11T11:37:52;3.85;;;1.13;;
68633;SDS011;55625;47.072;22.192;2022-09-11T11:40:35;2.42;;;0.90;;
68633;SDS011;55625;47.072;22.192;2022-09-11T11:43:14;3.43;;;1.10;;
68633;SDS011;55625;47.072;22.192;2022-09-11T11:45:52;1.20;;;0.57;;
68633;SDS011;55625;47.072;22.192;2022-09-11T11:51:10;1.92;;;0.45;;
68633;SDS011;55625;47.072;22.192;2022-09-11T11:54:03;1.77;;;0.47;;
68633;SDS011;55625;47.072;22.192;2022-09-11T11:56:50;2.10;;;0.80;;
68633;SDS011;55625;47.072;22.192;2022-09-11T12:00:05;1.85;;;0.52;;
68633;SDS011;55625;47.072;22.192;2022-09-11T12:02:54;1.60;;;0.90;;
68633;SDS011;55625;47.072;22.192;2022-09-11T12:05:36;1.40;;;0.47;;
68633;SDS011;55625;47.072;22.192;2022-09-11T12:08:02;2.33;;;0.65;;
68633;SDS011;55625;47.072;22.192;2022-09-11T12:10:36;2.60;;;1.33;;
68633;SDS011;55625;47.072;22.192;2022-09-11T12:13:05;1.50;;;0.70;;
68633;SDS011;55625;47.072;22.192;2022-09-11T12:16:01;1.98;;;0.55;;
68633;SDS011;55625;47.072;22.192;2022-09-11T12:24:20;1.90;;;0.83;;
68633;SDS011;55625;47.072;22.192;2022-09-11T12:32:44;3.30;;;0.98;;
68633;SDS011;55625;47.072;22.192;2022-09-11T12:40:40;2.03;;;0.38;;
68633;SDS011;55625;47.072;22.192;2022-09-11T12:46:04;1.35;;;0.40;;
68633;SDS011;55625;47.072;22.192;2022-09-11T12:48:56;1.63;;;0.73;;
68633;SDS011;55625;47.072;22.192;2022-09-11T12:51:41;1.87;;;0.40;;
68633;SDS011;55625;47.072;22.192;2022-09-11T12:54:30;1.83;;;0.40;;
68633;SDS011;55625;47.072;22.192;2022-09-11T12:57:15;1.40;;;0.65;;
68633;SDS011;55625;47.072;22.192;2022-09-11T12:59:52;3.03;;;1.13;;
68633;SDS011;55625;47.072;22.192;2022-09-11T13:05:14;1.10;;;0.40;;
68633;SDS011;55625;47.072;22.192;2022-09-11T13:08:02;1.45;;;0.52;;
68633;SDS011;55625;47.072;22.192;2022-09-11T13:10:42;2.50;;;0.85;;
68633;SDS011;55625;47.072;22.192;2022-09-11T13:16:17;1.40;;;0.50;;
68633;SDS011;55625;47.072;22.192;2022-09-11T13:18:49;1.50;;;0.40;;
68633;SDS011;55625;47.072;22.192;2022-09-11T13:21:17;1.60;;;0.30;;
68633;SDS011;55625;47.072;22.192;2022-09-11T13:23:44;2.20;;;0.55;;
68633;SDS011;55625;47.072;22.192;2022-09-11T13:26:43;1.63;;;0.57;;
68633;SDS011;55625;47.072;22.192;2022-09-11T13:29:02;2.15;;;1.23;;
68633;SDS011;55625;47.072;22.192;2022-09-11T13:31:32;1.93;;;0.60;;
68633;SDS011;55625;47.072;22.192;2022-09-11T13:34:01;1.63;;;0.68;;
68633;SDS011;55625;47.072;22.192;2022-09-11T13:36:30;1.33;;;0.45;;
68633;SDS011;55625;47.072;22.192;2022-09-11T13:39:00;2.72;;;1.13;;
68633;SDS011;55625;47.072;22.192;2022-09-11T13:41:28;1.50;;;0.53;;
68633;SDS011;55625;47.072;22.192;2022-09-11T13:44:01;2.00;;;0.88;;
68633;SDS011;55625;47.072;22.192;2022-09-11T13:46:32;2.13;;;0.47;;
68633;SDS011;55625;47.072;22.192;2022-09-11T13:51:34;2.08;;;0.35;;
68633;SDS011;55625;47.072;22.192;2022-09-11T13:54:10;1.37;;;0.63;;
68633;SDS011;55625;47.072;22.192;2022-09-11T14:02:35;2.65;;;0.60;;
68633;SDS011;55625;47.072;22.192;2022-09-11T14:05:26;1.30;;;0.30;;
68633;SDS011;55625;47.072;22.192;2022-09-11T14:08:03;1.47;;;0.73;;
68633;SDS011;55625;47.072;22.192;2022-09-11T14:10:59;2.92;;;0.80;;
68633;SDS011;55625;47.072;22.192;2022-09-11T14:16:09;1.60;;;0.30;;
68633;SDS011;55625;47.072;22.192;2022-09-11T14:21:44;3.10;;;0.57;;
68633;SDS011;55625;47.072;22.192;2022-09-11T14:26:59;1.35;;;0.30;;
68633;SDS011;55625;47.072;22.192;2022-09-11T14:29:52;2.75;;;0.55;;
68633;SDS011;55625;47.072;22.192;2022-09-11T14:32:29;2.17;;;0.80;;
68633;SDS011;55625;47.072;22.192;2022-09-11T14:34:58;1.73;;;0.20;;
68633;SDS011;55625;47.072;22.192;2022-09-11T14:37:26;2.25;;;0.30;;
68633;SDS011;55625;47.072;22.192;2022-09-11T14:39:56;1.52;;;0.30;;
68633;SDS011;55625;47.072;22.192;2022-09-11T14:42:26;1.25;;;0.25;;
68633;SDS011;55625;47.072;22.192;2022-09-11T14:44:55;1.42;;;0.90;;
68633;SDS011;55625;47.072;22.192;2022-09-11T14:47:22;2.23;;;0.73;;
68633;SDS011;55625;47.072;22.192;2022-09-11T14:49:51;1.17;;;0.50;;
68633;SDS011;55625;47.072;22.192;2022-09-11T14:52:20;2.08;;;0.85;;
68633;SDS011;55625;47.072;22.192;2022-09-11T14:54:50;3.67;;;0.35;;
68633;SDS011;55625;47.072;22.192;2022-09-11T14:57:21;1.90;;;0.82;;
68633;SDS011;55625;47.072;22.192;2022-09-11T14:59:51;2.20;;;0.53;;
68633;SDS011;55625;47.072;22.192;2022-09-11T15:02:18;2.47;;;0.20;;
68633;SDS011;55625;47.072;22.192;2022-09-11T15:04:47;2.58;;;0.68;;
68633;SDS011;55625;47.072;22.192;2022-09-11T15:07:14;2.80;;;0.28;;
68633;SDS011;55625;47.072;22.192;2022-09-11T15:09:42;3.80;;;0.73;;
68633;SDS011;55625;47.072;22.192;2022-09-11T15:12:10;2.30;;;0.50;;
68633;SDS011;55625;47.072;22.192;2022-09-11T15:14:38;3.25;;;0.25;;
68633;SDS011;55625;47.072;22.192;2022-09-11T15:17:06;4.30;;;0.47;;
68633;SDS011;55625;47.072;22.192;2022-09-11T15:19:38;1.67;;;0.20;;
68633;SDS011;55625;47.072;22.192;2022-09-11T15:22:05;1.73;;;0.80;;
68633;SDS011;55625;47.072;22.192;2022-09-11T15:24:32;1.70;;;0.53;;
68633;SDS011;55625;47.072;22.192;2022-09-11T15:26:58;1.67;;;0.20;;
68633;SDS011;55625;47.072;22.192;2022-09-11T15:29:25;1.20;;;0.10;;
68633;SDS011;55625;47.072;22.192;2022-09-11T15:31:51;2.85;;;0.50;;
68633;SDS011;55625;47.072;22.192;2022-09-11T15:34:17;1.73;;;0.43;;
68633;SDS011;55625;47.072;22.192;2022-09-11T15:36:44;2.25;;;0.75;;
68633;SDS011;55625;47.072;22.192;2022-09-11T15:39:11;1.67;;;0.73;;
68633;SDS011;55625;47.072;22.192;2022-09-11T15:41:40;0.95;;;0.35;;
68633;SDS011;55625;47.072;22.192;2022-09-11T15:44:11;1.52;;;0.13;;
68633;SDS011;55625;47.072;22.192;2022-09-11T15:46:44;1.50;;;0.20;;
68633;SDS011;55625;47.072;22.192;2022-09-11T15:49:14;1.20;;;0.35;;
68633;SDS011;55625;47.072;22.192;2022-09-11T15:51:41;1.98;;;0.47;;
68633;SDS011;55625;47.072;22.192;2022-09-11T15:54:08;1.42;;;0.60;;
68633;SDS011;55625;47.072;22.192;2022-09-11T15:56:35;1.25;;;0.50;;
68633;SDS011;55625;47.072;22.192;2022-09-11T15:59:02;1.60;;;0.60;;
68633;SDS011;55625;47.072;22.192;2022-09-11T16:01:29;2.55;;;0.60;;
68633;SDS011;55625;47.072;22.192;2022-09-11T16:04:02;2.85;;;0.80;;
68633;SDS011;55625;47.072;22.192;2022-09-11T16:06:32;2.22;;;0.73;;
68633;SDS011;55625;47.072;22.192;2022-09-11T16:09:03;1.95;;;0.30;;
68633;SDS011;55625;47.072;22.192;2022-09-11T16:11:35;1.37;;;0.30;;
68633;SDS011;55625;47.072;22.192;2022-09-11T16:14:03;1.30;;;0.47;;
68633;SDS011;55625;47.072;22.192;2022-09-11T16:16:29;3.03;;;0.80;;
68633;SDS011;55625;47.072;22.192;2022-09-11T16:18:55;4.15;;;0.93;;
68633;SDS011;55625;47.072;22.192;2022-09-11T16:21:22;2.07;;;0.67;;
68633;SDS011;55625;47.072;22.192;2022-09-11T16:23:48;3.90;;;0.88;;
68633;SDS011;55625;47.072;22.192;2022-09-11T16:26:18;1.52;;;0.77;;
68633;SDS011;55625;47.072;22.192;2022-09-11T16:28:45;2.72;;;0.57;;
68633;SDS011;55625;47.072;22.192;2022-09-11T16:31:12;4.45;;;0.75;;
68633;SDS011;55625;47.072;22.192;2022-09-11T16:33:40;4.20;;;0.87;;
68633;SDS011;55625;47.072;22.192;2022-09-11T16:36:09;1.65;;;0.45;;
68633;SDS011;55625;47.072;22.192;2022-09-11T16:38:41;1.63;;;0.80;;
68633;SDS011;55625;47.072;22.192;2022-09-11T16:41:14;3.40;;;0.80;;
68633;SDS011;55625;47.072;22.192;2022-09-11T16:43:46;1.73;;;0.80;;
68633;SDS011;55625;47.072;22.192;2022-09-11T16:46:15;3.30;;;0.90;;
68633;SDS011;55625;47.072;22.192;2022-09-11T16:48:44;3.20;;;0.65;;
68633;SDS011;55625;47.072;22.192;2022-09-11T16:51:12;2.85;;;0.73;;
68633;SDS011;55625;47.072;22.192;2022-09-11T16:53:39;5.75;;;0.57;;
68633;SDS011;55625;47.072;22.192;2022-09-11T16:56:07;1.40;;;0.52;;
68633;SDS011;55625;47.072;22.192;2022-09-11T16:58:36;2.83;;;0.77;;
68633;SDS011;55625;47.072;22.192;2022-09-11T17:01:06;2.03;;;0.55;;
68633;SDS011;55625;47.072;22.192;2022-09-11T17:03:35;2.92;;;0.63;;
68633;SDS011;55625;47.072;22.192;2022-09-11T17:06:02;2.72;;;1.08;;
68633;SDS011;55625;47.072;22.192;2022-09-11T17:08:30;2.15;;;0.88;;
68633;SDS011;55625;47.072;22.192;2022-09-11T17:10:58;2.67;;;0.30;;
68633;SDS011;55625;47.072;22.192;2022-09-11T17:13:26;2.20;;;1.17;;
68633;SDS011;55625;47.072;22.192;2022-09-11T17:15:53;2.17;;;1.33;;